Terminal Aerodrome Forecast
Issued by NWS

Home | Current Version | Previous Version | Text Only | Print | Product List | Glossary On
Versions: 1 2 3 4 5 6 7 8 9 10 11 12 13 14 15 16
279
FTUS45 KRIW 251120
TAFRKS
TAF
KRKS 251120Z 2512/2612 17007KT P6SM SKC
     FM252000 27012G20KT P6SM SKC
     FM260300 30011KT P6SM SKC
     FM260700 05011KT P6SM SCT050=

USA.gov is the U.S. government's official web portal to all federal, state and local government web resources and services.